Airfield :
LOGIN :

Register | Disclaimer

   EN    FR    IT 

 










Legend :    VFR   Marginal VFR   IFR   Intensive IFR   Very Intensive IFR
Visi :
Ceiling :
>= 8 km
>= 3000ft
5 to 8 km
1000 to 3000 ft
1500m to 5 km
500 to 1000 ft
800 to 1500m
200 to 500 ft
< 800m
< 200 ft
Symbols :   Thunderstorms  Fog  Heavy snow  Heavy precipitations  Wind > 20 kt
SIGMETs :     Misc.  Thunderstorms  Icing  Turbulence  Mountain Waves  Volcanic Ashes







- Airport Elevation : 102 ft
- IATA code : EXT
- Download approach charts


EGTE - Exeter

CURRENT METAR :
  • 202150Z 19013KT 9999 SCT025 15/11 Q1009

EXPIRED METARs :
  • 202120Z 19012KT 9999 SCT025 15/10 Q1009
  • 202050Z 19011KT 9999 FEW045 15/10 Q1010
  • 202020Z 19011KT 9999 FEW045 15/10 Q1010
  • 201950Z 20012KT 9999 FEW045 15/10 Q1010
  • 201920Z 21010KT 170V230 9999 FEW045 16/10 Q1010

TAF TAF EGTE
Valid from the 20 at 21:00 until the 21 at 01:00 UTC


202002Z 2021/2101 20012KT 9999 FEW040
TEMPO 2021/2101 8000 -RA
PROB30
TEMPO 2021/2101 19017G27KT RA BKN012
No reported NOTAMs for that airfield.



MET'MAP, your aeronautical weather chart ! - Copyright ORBIFLY December 2007 - Disclaimer

ORBIFLY MET'MAP TEAM :

Programming & Development : Alexandra Zaïnal
Concept & Development : Baudouin d'Aumeries
Co-Development & Prog : Marc-Olivier Méhu
Technical & hardware support : Manuel Goepfert

Contact : metmap@orbifly.com




SOURCES & CREDITS :

   NOAA